Latest Coastal Weather Observations for Legendre Island

IDW60701

Issued at 11:02 am WST Tuesday 25 June 2024 (issued every 10 minutes, with the page automatically refreshed every 10 minutes)

About coastal observations | Map of coastal stations | Coastal observations for WA | Marine services | Other Formats
Station Details ID: 004095 Name: LEGENDRE ISLAND Lat: -20.36 Lon: 116.84 Height: 29.0 m
Data from the previous 72 hours. | See also: Recent months at Legendre Island
Date/Time
WST
Wind Sea
Height
m
Swell Vis
km
Cloud Weather Temp
°C
Press
MSL
hPa
Rain since
9am
mm
Dir  Spd
kts
Gust
kts
Height
m
Period
s
Dir
25/11:00am ENE 12 15 - - - - - - - 25.6 1014.8 -
25/10:30am E 13 15 - - - - - - - 25.2 1015.1 -
25/10:00am E 13 15 - - - - - - - 25.2 1015.3 -
25/09:30am E 14 16 - - - - - - - 24.4 1015.3 -
25/09:00am E 13 15 - - - - - - - 23.5 1015.1 -
25/08:30am ESE 14 16 - - - - - - - 22.6 1014.9 -
25/08:00am ESE 12 14 - - - - - - - 21.9 1014.8 -
25/07:30am ESE 10 13 - - - - - - - 20.8 1014.6 -
25/07:00am SE 10 11 - - - - - - - 20.4 1014.3 -
25/06:30am SE 9 11 - - - - - - - 20.1 1013.9 -
25/06:00am SE 9 10 - - - - - - - 20.3 1013.7 -
25/05:30am SE 9 10 - - - - - - - 20.6 1013.5 -
25/05:00am SE 8 9 - - - - - - - 20.8 1013.5 -
25/04:30am SSE 7 9 - - - - - - - 21.5 1013.6 -
25/04:00am NNW 2 3 - - - - - - - 23.4 1013.7 -
25/03:30am NNW 4 5 - - - - - - - 23.4 1013.6 -
25/03:00am NNW 5 6 - - - - - - - 23.6 1013.6 -
25/02:30am N 7 8 - - - - - - - 23.8 1013.8 -
25/02:00am N 8 9 - - - - - - - 23.8 1014.0 -
25/01:30am N 8 9 - - - - - - - 23.9 1014.3 -
25/01:00am N 8 10 - - - - - - - 23.7 1014.5 -
25/12:30am N 8 9 - - - - - - - 23.7 1014.5 -
25/12:00am N 9 10 - - - - - - - 23.9 1014.7 -
 
Date/Time
WST
Wind Sea
Height
m
Swell Vis
km
Cloud Weather Temp
°C
Press
MSL
hPa
Rain since
9am
mm
Dir  Spd
kts
Gust
kts
Height
m
Period
s
Dir
24/11:30pm N 10 11 - - - - - - - 23.8 1014.8 -
24/11:00pm N 9 10 - - - - - - - 24.0 1015.0 -
24/10:30pm N 9 10 - - - - - - - 24.0 1015.3 -
24/10:00pm N 9 11 - - - - - - - 24.0 1015.4 -
24/09:30pm N 10 12 - - - - - - - 24.2 1015.3 -
24/09:00pm N 13 14 - - - - - - - 24.2 1015.2 -
24/08:30pm NNE 11 13 - - - - - - - 24.1 1015.3 -
24/08:00pm NNE 10 12 - - - - - - - 23.9 1015.5 -
24/07:30pm NNE 10 11 - - - - - - - 24.0 1015.4 -
24/07:00pm NE 11 12 - - - - - - - 23.9 1015.2 -
24/06:30pm NE 12 13 - - - - - - - 24.0 1015.1 -
24/06:00pm NE 13 15 - - - - - - - 24.0 1014.8 -
24/05:30pm NE 13 15 - - - - - - - 24.1 1014.8 -
24/05:00pm NE 13 15 - - - - - - - 24.4 1014.9 -
24/04:30pm NE 14 15 - - - - - - - 24.6 1014.8 -
24/04:00pm NE 15 17 - - - - - - - 25.1 1014.7 -
24/03:30pm ENE 15 17 - - - - - - - 25.3 1014.8 -
24/03:00pm ENE 15 16 - - - - - - - 25.5 1015.0 -
24/02:30pm ENE 14 16 - - - - - - - 25.5 1015.2 -
24/02:00pm ENE 14 17 - - - - - - - 25.5 1015.6 -
24/01:30pm E 13 16 - - - - - - - 25.8 1016.0 -
24/01:00pm E 16 18 - - - - - - - 25.4 1016.2 -
24/12:30pm E 17 19 - - - - - - - 25.3 1016.6 -
24/12:00pm E 17 19 - - - - - - - 25.2 1017.1 -
24/11:30am E 17 21 - - - - - - - 25.2 1017.5 -
24/11:00am E 16 19 - - - - - - - 25.0 1017.8 -
24/10:30am E 16 20 - - - - - - - 24.7 1017.9 -
24/10:00am E 16 19 - - - - - - - 24.5 1018.2 -
24/09:30am ESE 16 18 - - - - - - - 24.4 1018.4 -
24/09:00am ESE 16 19 - - - - - - - 24.3 1018.2 -
24/08:30am ESE 16 19 - - - - - - - 23.8 1018.0 -
24/08:00am ESE 15 19 - - - - - - - 23.1 1017.7 -
24/07:30am ESE 14 18 - - - - - - - 22.2 1017.4 -
24/07:00am SE 13 18 - - - - - - - 21.4 1017.0 -
24/06:30am SE 12 15 - - - - - - - 20.9 1016.7 -
24/06:00am SE 13 17 - - - - - - - 21.1 1016.3 -
24/05:30am SE 13 16 - - - - - - - 20.4 1016.0 -
24/05:00am SSE 10 11 - - - - - - - 20.2 1016.1 -
24/04:30am SSE 11 13 - - - - - - - 19.9 1016.2 -
24/04:00am SE 8 11 - - - - - - - 20.5 1016.1 -
24/03:30am ESE 8 10 - - - - - - - 20.8 1016.1 -
24/03:00am SE 9 13 - - - - - - - 21.0 1016.3 -
24/02:30am SSE 7 8 - - - - - - - 20.7 1016.5 -
24/02:00am S 7 8 - - - - - - - 21.2 1016.5 -
24/01:30am S 9 10 - - - - - - - 21.5 1016.8 -
24/01:00am SSW 9 11 - - - - - - - 21.8 1017.0 -
24/12:30am S 4 5 - - - - - - - 21.7 1017.1 -
24/12:00am S 4 5 - - - - - - - 21.9 1017.3 -
 
Date/Time
WST
Wind Sea
Height
m
Swell Vis
km
Cloud Weather Temp
°C
Press
MSL
hPa
Rain since
9am
mm
Dir  Spd
kts
Gust
kts
Height
m
Period
s
Dir
23/11:30pm S 3 5 - - - - - - - 22.5 1017.5 -
23/11:00pm CALM 0 0 - - - - - - - 23.7 1017.4 -
23/10:30pm NNW 2 2 - - - - - - - 24.0 1017.5 -
23/10:00pm N 3 4 - - - - - - - 23.8 1017.5 -
23/09:30pm N 4 5 - - - - - - - 24.2 1017.4 -
23/09:00pm N 4 5 - - - - - - - 24.2 1017.4 -
23/08:30pm N 6 8 - - - - - - - 24.3 1017.4 -
23/08:00pm N 8 9 - - - - - - - 24.3 1017.1 -
23/07:30pm N 8 9 - - - - - - - 24.3 1016.9 -
23/07:00pm N 9 11 - - - - - - - 24.2 1016.6 -
23/06:30pm N 9 10 - - - - - - - 24.4 1016.5 -
23/06:00pm NNE 9 10 - - - - - - - 24.5 1016.4 -
23/05:30pm NNE 9 10 - - - - - - - 24.6 1016.3 -
23/05:00pm NE 9 10 - - - - - - - 24.9 1016.3 -
23/04:30pm NE 10 11 - - - - - - - 25.4 1016.2 -
23/04:00pm NE 10 11 - - - - - - - 25.5 1016.3 -
23/03:30pm ENE 10 12 - - - - - - - 26.2 1016.3 -
23/03:00pm ENE 11 13 - - - - - - - 26.4 1016.5 -
23/02:30pm ENE 12 13 - - - - - - - 26.5 1016.6 -
23/02:00pm ENE 12 14 - - - - - - - 26.7 1016.8 -
23/01:30pm ENE 12 14 - - - - - - - 26.5 1017.0 -
23/01:00pm ENE 12 15 - - - - - - - 26.5 1017.6 -
23/12:30pm E 12 14 - - - - - - - 26.2 1017.9 -
23/12:00pm ESE 11 13 - - - - - - - 26.1 1018.6 -
23/11:30am ESE 11 14 - - - - - - - 26.4 1019.0 -
23/11:00am ESE 11 14 - - - - - - - 25.9 1019.2 -
23/10:30am ESE 12 14 - - - - - - - 25.6 1019.4 -
23/10:00am ESE 12 13 - - - - - - - 25.1 1019.4 -
23/09:30am ESE 11 14 - - - - - - - 24.3 1019.5 -
23/09:00am ESE 11 13 - - - - - - - 23.3 1019.4 -
23/08:30am ESE 9 12 - - - - - - - 23.0 1019.3 -
23/08:00am ESE 7 9 - - - - - - - 21.5 1019.1 -
23/07:30am SSE 7 7 - - - - - - - 19.9 1018.7 -
23/07:00am SE 4 4 - - - - - - - 19.9 1018.3 -
23/06:30am S 6 7 - - - - - - - 19.7 1018.2 -
23/06:00am S 6 8 - - - - - - - 19.6 1017.7 -
23/05:30am S 7 9 - - - - - - - 20.0 1017.7 -
23/05:00am SSW 9 12 - - - - - - - 20.4 1017.4 -
23/04:30am SE 7 7 - - - - - - - 19.9 1017.3 -
23/04:00am SE 8 9 - - - - - - - 19.9 1017.5 -
23/03:30am SE 7 8 - - - - - - - 20.3 1017.5 -
23/03:00am SE 7 8 - - - - - - - 20.6 1017.6 -
23/02:30am SSE 7 8 - - - - - - - 20.7 1017.7 -
23/02:00am SSE 7 8 - - - - - - - 20.5 1017.8 -
23/01:30am SSE 7 8 - - - - - - - 21.0 1017.8 -
23/01:00am SSE 6 8 - - - - - - - 21.4 1017.9 -
23/12:30am SSE 7 7 - - - - - - - 21.6 1018.0 -
23/12:00am SSE 7 8 - - - - - - - 21.7 1018.3 -
 
Date/Time
WST
Wind Sea
Height
m
Swell Vis
km
Cloud Weather Temp
°C
Press
MSL
hPa
Rain since
9am
mm
Dir  Spd
kts
Gust
kts
Height
m
Period
s
Dir
22/11:30pm SSE 5 8 - - - - - - - 22.1 1018.4 -
22/11:00pm NE 2 3 - - - - - - - 23.9 1018.3 -
22/10:30pm N 2 2 - - - - - - - 23.9 1018.2 -
22/10:00pm NE 3 4 - - - - - - - 24.0 1017.9 -
22/09:30pm NE 5 6 - - - - - - - 24.1 1017.7 -
22/09:00pm NE 6 7 - - - - - - - 24.1 1017.5 -
22/08:30pm NNE 7 8 - - - - - - - 24.2 1017.4 -
22/08:00pm NE 8 9 - - - - - - - 24.2 1017.4 -
22/07:30pm NE 9 10 - - - - - - - 24.3 1017.3 -
22/07:00pm NE 10 11 - - - - - - - 24.2 1017.1 -
22/06:30pm NE 10 12 - - - - - - - 24.3 1016.8 -
22/06:00pm NE 11 12 - - - - - - - 24.3 1016.7 -
22/05:30pm NE 12 14 - - - - - - - 24.4 1016.6 -
22/05:00pm ENE 11 13 - - - - - - - 24.5 1016.6 -
22/04:30pm ENE 13 15 - - - - - - - 24.9 1016.5 -
22/04:00pm ENE 14 16 - - - - - - - 25.2 1016.4 -
22/03:30pm ENE 14 16 - - - - - - - 25.8 1016.4 -
22/03:00pm E 16 18 - - - - - - - 26.0 1016.1 -
22/02:30pm E 16 17 - - - - - - - 26.0 1016.2 -
22/02:00pm E 16 18 - - - - - - - 26.2 1016.6 -
22/01:30pm E 15 18 - - - - - - - 25.9 1017.0 -
22/01:00pm E 17 19 - - - - - - - 25.7 1017.5 -
22/12:30pm E 17 19 - - - - - - - 25.8 1018.0 -
22/12:00pm E 17 20 - - - - - - - 25.3 1018.4 -
22/11:30am E 18 21 - - - - - - - 25.0 1018.9 -

Other formats

Comma delimited format used in spreadsheet applications
http://www.bom.gov.au/fwo/IDW60701/IDW60701.94307.axf

JavaScript Object Notation format (JSON) in row-major order
http://www.bom.gov.au/fwo/IDW60701/IDW60701.94307.json

Data quality

Most of these data are generated automatically and are frequently updated. Quality checks on data are not normally performed. It is possible for incorrect values to appear. Refer to information at About Latest Weather Observations and please check the disclaimer before using these data.